San Patricio, New Mexico
Current Conditions -  °F | °C
As of 11:15 AM on Thursday 27 Nov 2014 (Local Time) from KSRR Reporting Station
Clear Clear  
Wind Chill: 59°   Ceiling: Unl
Heat Index: 59°   Visibility: 10mi
Dew Point: 19°   Wind: 5mph
Humidity: 22%   Direction: 60°ENE
Pressure: 30.46"   Gusts: NA
Location:  33.41°N, 105.33°W
Report Text: KSRR 271815Z AUTO 06004KT 10SM CLR 15/M07 A3046 RMK AO2
Loading
Personal Weather Stations






























Interactive Weather Map New forecast layout! Learn more

10-Day Weather Forecast

Advertisements
Track Severe Weather on mobile